Time;durP1;ratioP1;P1;durP2;ratioP2;P2;SDS_P1;SDS_P2;PMS_P1;PMS_P2;Temp;Humidity;BMP_temperature;BMP_pressure;BME280_temperature;BME280_humidity;BME280_pressure;Samples;Min_cycle;Max_cycle;Signal;HPM_P1;HPM_P2
2022/08/29 00:01:07;;;;;;;10.30;3.40;;;21.40;99.90;;;;;;5068485;28;20029;-82
2022/08/29 00:03:34;;;;;;;7.97;2.90;;;21.30;99.90;;;;;;5069131;28;20028;-84
2022/08/29 00:06:00;;;;;;;7.07;2.15;;;21.30;99.90;;;;;;5068705;28;20106;-84
2022/08/29 00:08:26;;;;;;;9.13;2.20;;;21.40;99.90;;;;;;5069764;28;20024;-84
2022/08/29 00:10:51;;;;;;;4.53;2.22;;;21.40;99.90;;;;;;5069096;28;20497;-82
2022/08/29 00:13:17;;;;;;;5.20;1.95;;;21.40;99.90;;;;;;5067760;28;20031;-84
2022/08/29 00:15:43;;;;;;;7.28;2.20;;;21.40;99.90;;;;;;5068293;28;20038;-83
2022/08/29 00:18:09;;;;;;;5.03;2.28;;;21.40;99.90;;;;;;5067861;28;20025;-78
2022/08/29 00:20:35;;;;;;;8.23;2.17;;;21.40;99.90;;;;;;5068299;28;20385;-82
2022/08/29 00:23:05;;;;;;;9.98;3.15;;;21.40;99.90;;;;;;5066084;28;20024;-82
2022/08/29 00:25:31;;;;;;;7.10;2.47;;;21.30;99.90;;;;;;5066364;28;20020;-82
2022/08/29 00:27:57;;;;;;;10.13;2.25;;;21.30;99.90;;;;;;5065947;28;20447;-81
2022/08/29 00:30:23;;;;;;;6.22;2.33;;;21.20;99.90;;;;;;5066477;28;20038;-82
2022/08/29 00:32:50;;;;;;;6.93;2.53;;;21.20;99.90;;;;;;5065820;28;20055;-82
2022/08/29 00:35:23;;;;;;;5.90;2.53;;;21.20;99.90;;;;;;5066357;28;20033;-82
2022/08/29 00:37:50;;;;;;;4.35;2.45;;;21.10;99.90;;;;;;5065821;28;20577;-82
2022/08/29 00:40:22;;;;;;;6.43;2.42;;;21.10;99.90;;;;;;5066335;28;20048;-83
2022/08/29 00:42:48;;;;;;;5.43;2.72;;;21.00;99.90;;;;;;5067314;28;20556;-82
2022/08/29 00:45:16;;;;;;;5.55;2.70;;;21.00;99.90;;;;;;5066048;28;20135;-82
2022/08/29 00:47:51;;;;;;;11.35;2.95;;;21.00;99.90;;;;;;5066344;28;20024;-82
2022/08/29 00:50:27;;;;;;;8.35;2.75;;;20.90;99.90;;;;;;5066299;28;20033;-83
2022/08/29 00:52:55;;;;;;;8.90;2.42;;;20.90;99.90;;;;;;5065979;28;20017;-82
2022/08/29 00:55:24;;;;;;;7.20;2.72;;;20.90;99.90;;;;;;5065384;28;20037;-82
2022/08/29 00:57:56;;;;;;;5.25;2.22;;;20.90;99.90;;;;;;5066269;28;20428;-84
2022/08/29 01:00:23;;;;;;;5.40;2.67;;;20.90;99.90;;;;;;5065681;28;20051;-83
2022/08/29 01:02:50;;;;;;;5.13;1.95;;;20.90;99.90;;;;;;5066394;28;20474;-84
2022/08/29 01:05:18;;;;;;;4.30;2.25;;;20.90;99.90;;;;;;5066147;28;20508;-83
2022/08/29 01:07:44;;;;;;;3.80;2.40;;;20.90;99.90;;;;;;5066225;28;20020;-83
2022/08/29 01:12:14;;;;;;;4.68;2.20;;;20.80;99.90;;;;;;5066599;28;20495;-83
2022/08/29 01:12:56;;;;;;;5.88;2.30;;;20.90;99.90;;;;;;5069287;28;20147;-82
2022/08/29 01:15:23;;;;;;;3.10;2.10;;;20.90;99.90;;;;;;5086818;28;20498;-83
2022/08/29 01:17:49;;;;;;;6.05;2.38;;;20.90;99.90;;;;;;5086310;28;20027;-83
2022/08/29 01:20:34;;;;;;;9.40;2.63;;;20.80;99.90;;;;;;5085949;28;20028;-83
2022/08/29 01:23:24;;;;;;;9.68;3.10;;;20.80;99.90;;;;;;5066336;28;20025;-84
2022/08/29 01:25:50;;;;;;;4.78;2.83;;;20.60;99.90;;;;;;5066036;28;20097;-83
2022/08/29 01:28:24;;;;;;;9.27;2.97;;;20.40;99.90;;;;;;5066429;28;20523;-83
2022/08/29 01:30:59;;;;;;;6.18;2.40;;;20.30;99.90;;;;;;5065583;28;20025;-83
2022/08/29 01:33:26;;;;;;;11.30;3.60;;;20.20;99.90;;;;;;5066157;28;20522;-83
2022/08/29 01:35:52;;;;;;;10.63;2.65;;;20.20;99.90;;;;;;5065493;28;20086;-82
2022/08/29 01:38:26;;;;;;;5.47;2.83;;;20.10;99.90;;;;;;5066859;28;20033;-83
2022/08/29 01:40:58;;;;;;;7.43;2.90;;;20.10;99.90;;;;;;5066011;28;20037;-83
2022/08/29 01:43:25;;;;;;;5.15;2.55;;;20.10;99.90;;;;;;5068983;28;20020;-83
2022/08/29 01:45:51;;;;;;;8.98;3.05;;;20.00;99.90;;;;;;5074942;28;20048;-81
2022/08/29 01:48:18;;;;;;;5.35;3.20;;;20.00;99.90;;;;;;5079228;28;20505;-82
2022/08/29 01:50:45;;;;;;;8.52;4.15;;;20.00;99.90;;;;;;5077751;28;20021;-83
2022/08/29 01:53:11;;;;;;;9.27;4.38;;;20.00;99.90;;;;;;5074753;28;20022;-83
2022/08/29 01:55:37;;;;;;;7.82;4.82;;;20.10;99.90;;;;;;5073803;28;20040;-83
2022/08/29 01:58:03;;;;;;;11.25;4.78;;;20.10;99.90;;;;;;5073645;28;20487;-82
2022/08/29 02:00:30;;;;;;;9.95;4.70;;;20.10;99.90;;;;;;5072709;28;20489;-82
2022/08/29 02:02:59;;;;;;;11.80;5.63;;;20.10;99.90;;;;;;5071610;28;20033;-83
2022/08/29 02:05:25;;;;;;;9.25;5.10;;;20.10;99.90;;;;;;5073882;28;20035;-83
2022/08/29 02:07:51;;;;;;;10.27;5.68;;;20.20;99.90;;;;;;5072006;28;20304;-82
2022/08/29 02:10:17;;;;;;;7.45;4.55;;;20.20;99.90;;;;;;5072045;28;20041;-83
2022/08/29 02:12:43;;;;;;;8.35;4.90;;;20.20;99.90;;;;;;5073757;28;20058;-83
2022/08/29 02:15:10;;;;;;;10.60;4.68;;;20.20;99.90;;;;;;5071239;28;20070;-83
2022/08/29 02:17:37;;;;;;;20.58;4.90;;;20.20;99.90;;;;;;5071627;28;20020;-83
2022/08/29 02:20:07;;;;;;;9.73;4.93;;;20.10;99.90;;;;;;5072101;28;20059;-83
2022/08/29 02:22:33;;;;;;;11.98;4.60;;;20.20;99.90;;;;;;5072144;28;20028;-82
2022/08/29 02:24:58;;;;;;;6.55;4.40;;;20.10;99.90;;;;;;5071775;28;20603;-81
2022/08/29 02:27:24;;;;;;;10.27;5.57;;;20.20;99.90;;;;;;5072151;28;20034;-84
2022/08/29 02:29:51;;;;;;;15.23;4.78;;;20.10;99.90;;;;;;5073625;28;20032;-83
2022/08/29 02:32:17;;;;;;;8.77;4.95;;;20.10;99.90;;;;;;5072198;28;20028;-84
2022/08/29 02:34:44;;;;;;;10.63;5.47;;;20.10;99.90;;;;;;5072831;28;20105;-84
2022/08/29 02:37:10;;;;;;;8.95;5.32;;;20.10;99.90;;;;;;5073081;28;20525;-83
2022/08/29 02:39:36;;;;;;;10.52;4.78;;;20.00;99.90;;;;;;5072727;28;20032;-82
2022/08/29 02:42:02;;;;;;;9.52;4.38;;;20.00;99.90;;;;;;5073895;28;20024;-82
2022/08/29 02:44:28;;;;;;;7.10;4.97;;;20.10;99.90;;;;;;5071774;28;20103;-82
2022/08/29 02:46:54;;;;;;;8.68;4.88;;;20.00;99.90;;;;;;5071646;28;20488;-83
2022/08/29 02:49:19;;;;;;;8.02;4.45;;;20.00;99.90;;;;;;5070533;28;20054;-83
2022/08/29 02:51:45;;;;;;;14.77;4.22;;;20.00;99.90;;;;;;5071342;28;20400;-82
2022/08/29 02:54:11;;;;;;;9.55;4.68;;;19.90;99.90;;;;;;5070979;28;20370;-82
2022/08/29 02:56:38;;;;;;;9.98;4.35;;;19.90;99.90;;;;;;5068216;28;20670;-84
2022/08/29 02:59:04;;;;;;;9.15;4.57;;;19.80;99.90;;;;;;5068457;28;20097;-82
2022/08/29 03:01:30;;;;;;;7.68;4.25;;;19.80;99.90;;;;;;5068628;28;20493;-82
2022/08/29 03:03:56;;;;;;;7.20;4.57;;;19.80;99.90;;;;;;5068747;28;20035;-84
2022/08/29 03:06:22;;;;;;;8.52;5.07;;;19.90;99.90;;;;;;5067929;28;20111;-82
2022/08/29 03:08:49;;;;;;;10.27;5.18;;;19.90;99.90;;;;;;5069999;28;20592;-83
2022/08/29 03:11:16;;;;;;;8.65;5.40;;;19.80;99.90;;;;;;5068471;28;20028;-82
2022/08/29 03:13:42;;;;;;;11.48;5.28;;;19.70;99.90;;;;;;5067807;28;20078;-83
2022/08/29 03:16:08;;;;;;;13.75;5.82;;;19.70;99.90;;;;;;5068314;28;20060;-83
2022/08/29 03:18:34;;;;;;;9.60;5.88;;;19.70;99.90;;;;;;5067795;28;20101;-82
2022/08/29 03:21:00;;;;;;;15.93;5.53;;;19.60;99.90;;;;;;5067464;28;20560;-82
2022/08/29 03:23:26;;;;;;;11.90;5.57;;;19.60;99.90;;;;;;5068345;28;20074;-83
2022/08/29 03:25:53;;;;;;;12.07;5.93;;;19.70;99.90;;;;;;5068218;28;20021;-82
2022/08/29 03:28:18;;;;;;;13.27;6.20;;;19.70;99.90;;;;;;5068067;28;20554;-82
2022/08/29 03:30:44;;;;;;;11.35;6.03;;;19.60;99.90;;;;;;5067371;28;20028;-83
2022/08/29 03:33:10;;;;;;;10.40;5.95;;;19.60;99.90;;;;;;5068830;28;20155;-83
2022/08/29 03:35:35;;;;;;;10.00;7.05;;;19.60;99.90;;;;;;5068835;28;20048;-83
2022/08/29 03:38:01;;;;;;;10.75;6.07;;;19.60;99.90;;;;;;5069584;28;20056;-83
2022/08/29 03:40:26;;;;;;;10.27;5.78;;;19.60;99.90;;;;;;5070403;28;20043;-81
2022/08/29 03:42:53;;;;;;;12.77;5.57;;;19.70;99.90;;;;;;5068005;28;20024;-82
2022/08/29 03:45:20;;;;;;;9.00;5.28;;;19.60;99.90;;;;;;5067850;28;20459;-83
2022/08/29 03:47:45;;;;;;;12.38;5.05;;;19.70;99.90;;;;;;5067724;28;20035;-83
2022/08/29 03:50:13;;;;;;;10.63;4.60;;;19.60;99.90;;;;;;5067614;28;20029;-82
2022/08/29 03:52:41;;;;;;;11.07;4.80;;;19.60;99.90;;;;;;5067660;28;20025;-83
2022/08/29 03:55:08;;;;;;;6.95;3.90;;;19.70;99.90;;;;;;5067040;28;20123;-82
2022/08/29 03:57:33;;;;;;;15.25;4.50;;;19.60;99.90;;;;;;5067033;28;20024;-83
2022/08/29 04:00:00;;;;;;;10.52;4.13;;;19.60;99.90;;;;;;5067716;28;20033;-83
2022/08/29 04:02:26;;;;;;;11.48;4.15;;;19.50;99.90;;;;;;5067017;28;20030;-82
2022/08/29 04:05:06;;;;;;;5.85;3.72;;;19.50;99.90;;;;;;5067211;28;20135;-83
2022/08/29 04:07:50;;;;;;;4.95;3.40;;;19.50;99.90;;;;;;5068711;28;20021;-83
2022/08/29 04:10:22;;;;;;;9.50;3.33;;;19.50;99.90;;;;;;5067860;28;20032;-83
2022/08/29 04:12:49;;;;;;;12.52;4.03;;;19.50;99.90;;;;;;5068006;28;20028;-83
2022/08/29 04:15:15;;;;;;;8.88;3.85;;;19.50;99.90;;;;;;5067177;28;20138;-82
2022/08/29 04:17:41;;;;;;;9.25;2.83;;;19.50;99.90;;;;;;5066436;28;20131;-83
2022/08/29 04:20:07;;;;;;;8.38;2.80;;;19.50;99.90;;;;;;5066867;28;20337;-81
2022/08/29 04:22:38;;;;;;;15.00;2.95;;;19.50;99.90;;;;;;5066835;28;20078;-81
2022/08/29 04:25:07;;;;;;;4.82;3.28;;;19.60;99.90;;;;;;5067174;28;20032;-83
2022/08/29 04:27:35;;;;;;;7.53;3.70;;;19.60;99.90;;;;;;5067458;28;20035;-82
2022/08/29 04:30:03;;;;;;;6.95;3.15;;;19.60;99.90;;;;;;5067058;28;20163;-82
2022/08/29 04:32:29;;;;;;;6.97;3.20;;;19.70;99.90;;;;;;5066589;28;20125;-82
2022/08/29 04:34:56;;;;;;;5.97;2.83;;;19.70;99.90;;;;;;5068241;28;20033;-81
2022/08/29 04:37:22;;;;;;;6.95;2.95;;;19.70;99.90;;;;;;5068271;28;20063;-81
2022/08/29 04:39:48;;;;;;;8.82;3.25;;;19.80;99.90;;;;;;5067310;28;20041;-82
2022/08/29 04:42:13;;;;;;;9.80;2.75;;;20.00;99.90;;;;;;5066570;28;20166;-81
2022/08/29 04:44:39;;;;;;;3.88;3.00;;;20.00;99.90;;;;;;5066838;28;20405;-82
2022/08/29 04:47:05;;;;;;;6.88;2.60;;;20.10;99.90;;;;;;5066311;28;20039;-82
2022/08/29 04:49:30;;;;;;;10.60;2.42;;;20.30;99.90;;;;;;5068059;28;20113;-82
2022/08/29 04:51:56;;;;;;;10.65;2.80;;;20.40;99.90;;;;;;5067086;28;20052;-82
2022/08/29 04:54:22;;;;;;;8.73;3.33;;;20.50;99.90;;;;;;5066751;28;20523;-81
2022/08/29 04:56:48;;;;;;;4.72;2.70;;;20.80;99.90;;;;;;5066485;28;20043;-81
2022/08/29 04:59:15;;;;;;;7.30;3.67;;;21.00;99.90;;;;;;5066800;28;20044;-82
2022/08/29 05:01:41;;;;;;;7.03;2.70;;;21.00;99.90;;;;;;5066347;28;20032;-82
2022/08/29 05:04:06;;;;;;;6.50;2.75;;;21.10;99.90;;;;;;5068019;28;20477;-83
2022/08/29 05:06:32;;;;;;;5.25;2.13;;;21.20;99.90;;;;;;5065955;28;20115;-82
2022/08/29 05:08:58;;;;;;;5.35;2.60;;;21.40;99.90;;;;;;5067361;28;20104;-83
2022/08/29 05:11:24;;;;;;;5.80;3.22;;;21.50;99.90;;;;;;5068012;28;20646;-82
2022/08/29 05:13:52;;;;;;;4.70;2.40;;;21.90;99.90;;;;;;5068049;28;20378;-82
2022/08/29 05:16:17;;;;;;;8.75;2.42;;;22.30;99.90;;;;;;5066054;28;20029;-82
2022/08/29 05:18:45;;;;;;;5.90;2.78;;;22.60;99.90;;;;;;5065149;28;20470;-82
2022/08/29 05:21:12;;;;;;;7.63;3.03;;;22.80;99.90;;;;;;5066057;28;20036;-82
2022/08/29 05:23:39;;;;;;;4.90;3.10;;;23.00;99.90;;;;;;5066372;28;20098;-83
2022/08/29 05:26:05;;;;;;;6.50;2.85;;;23.20;99.90;;;;;;5066109;28;20039;-82
2022/08/29 05:28:33;;;;;;;6.43;2.88;;;23.40;99.90;;;;;;5066809;28;20495;-82
2022/08/29 05:30:59;;;;;;;7.65;2.38;;;23.80;99.90;;;;;;5065864;28;20024;-83
2022/08/29 05:33:26;;;;;;;7.40;2.45;;;24.20;99.90;;;;;;5065639;28;20044;-82
2022/08/29 05:35:52;;;;;;;6.85;3.00;;;24.50;99.90;;;;;;5067358;28;20032;-83
2022/08/29 05:38:18;;;;;;;4.93;2.35;;;24.80;99.90;;;;;;5065922;28;20086;-83
2022/08/29 05:40:44;;;;;;;4.60;2.30;;;25.00;99.90;;;;;;5065940;28;20028;-83
2022/08/29 05:43:10;;;;;;;4.63;2.22;;;25.20;99.90;;;;;;5066260;28;20024;-83
2022/08/29 05:45:37;;;;;;;8.40;3.20;;;25.50;99.90;;;;;;5065769;28;20028;-83
2022/08/29 05:48:04;;;;;;;8.75;2.55;;;25.80;99.90;;;;;;5067821;28;20493;-84
2022/08/29 05:50:30;;;;;;;7.30;3.13;;;26.20;99.90;;;;;;5065093;28;20060;-83
2022/08/29 05:52:56;;;;;;;11.10;3.50;;;26.50;99.90;;;;;;5065583;28;20068;-83
2022/08/29 05:55:22;;;;;;;5.00;2.35;;;26.80;99.90;;;;;;5066393;28;20035;-84
2022/08/29 05:57:50;;;;;;;5.00;2.55;;;27.00;99.90;;;;;;5068357;28;20033;-84
2022/08/29 06:00:16;;;;;;;8.30;2.67;;;27.10;99.90;;;;;;5067925;28;20512;-83
2022/08/29 06:02:42;;;;;;;6.50;2.60;;;27.30;99.90;;;;;;5068656;28;20028;-84
2022/08/29 06:05:08;;;;;;;12.82;2.88;;;27.50;99.90;;;;;;5066523;28;20020;-83
2022/08/29 06:07:33;;;;;;;7.20;2.38;;;27.80;99.30;;;;;;5067269;28;20865;-84
2022/08/29 06:10:00;;;;;;;6.80;2.75;;;28.10;98.80;;;;;;5066960;28;20061;-85
2022/08/29 06:12:26;;;;;;;7.28;3.20;;;28.50;98.00;;;;;;5065855;28;20070;-84
2022/08/29 06:14:52;;;;;;;7.50;2.90;;;28.80;97.30;;;;;;5066923;28;20079;-84
2022/08/29 06:17:18;;;;;;;8.45;2.60;;;29.20;96.40;;;;;;5065232;28;20586;-83
2022/08/29 06:19:43;;;;;;;7.68;2.97;;;29.70;95.20;;;;;;5065267;28;20055;-84
2022/08/29 06:22:10;;;;;;;11.05;2.80;;;30.10;94.20;;;;;;5065727;28;20021;-84
2022/08/29 06:24:37;;;;;;;9.15;3.25;;;30.60;93.30;;;;;;5066079;28;20025;-84
2022/08/29 06:27:03;;;;;;;6.80;2.60;;;31.20;91.90;;;;;;5065839;28;20040;-84
2022/08/29 06:29:29;;;;;;;5.50;2.50;;;31.40;89.20;;;;;;5066804;28;20482;-83
2022/08/29 06:31:56;;;;;;;14.77;3.33;;;31.60;87.10;;;;;;5070062;28;20020;-83
2022/08/29 06:34:22;;;;;;;6.85;3.13;;;31.50;85.70;;;;;;5069092;28;20044;-83
2022/08/29 06:36:50;;;;;;;6.40;2.78;;;31.30;85.20;;;;;;5070279;28;20021;-83
2022/08/29 06:39:16;;;;;;;9.38;2.88;;;31.10;86.70;;;;;;5069084;28;20050;-84
2022/08/29 06:41:42;;;;;;;7.65;2.95;;;31.10;87.50;;;;;;5068756;28;20090;-83
2022/08/29 06:44:08;;;;;;;6.05;2.42;;;31.50;86.00;;;;;;5069751;28;20028;-83
2022/08/29 06:46:38;;;;;;;8.18;3.20;;;31.90;84.60;;;;;;5068647;28;20039;-84
2022/08/29 06:49:07;;;;;;;9.27;3.00;;;32.10;83.10;;;;;;5068392;28;20115;-83
2022/08/29 06:51:36;;;;;;;7.65;2.83;;;32.50;82.70;;;;;;5068730;28;20094;-83
2022/08/29 06:54:04;;;;;;;8.93;3.00;;;32.70;81.40;;;;;;5069971;28;20473;-83
2022/08/29 06:56:30;;;;;;;8.27;3.08;;;33.10;79.30;;;;;;5068975;28;20158;-84
2022/08/29 06:58:56;;;;;;;9.25;2.90;;;33.30;77.80;;;;;;5068281;28;20024;-83
2022/08/29 07:01:22;;;;;;;5.28;2.80;;;33.40;76.00;;;;;;5067839;28;20039;-84
2022/08/29 07:03:49;;;;;;;7.75;2.88;;;33.70;75.60;;;;;;5067951;28;20119;-85
2022/08/29 07:06:16;;;;;;;8.68;3.08;;;34.00;74.00;;;;;;5067945;28;20048;-83
2022/08/29 07:08:42;;;;;;;17.90;2.88;;;34.10;73.30;;;;;;5068519;28;20052;-84
2022/08/29 07:11:09;;;;;;;8.27;2.90;;;34.30;71.40;;;;;;5067733;28;20767;-84
2022/08/29 07:13:34;;;;;;;12.82;2.75;;;34.30;71.10;;;;;;5068365;28;20028;-84
2022/08/29 07:16:00;;;;;;;6.40;3.17;;;34.30;70.90;;;;;;5069248;28;20098;-83
2022/08/29 07:18:26;;;;;;;10.13;2.50;;;34.70;69.60;;;;;;5068383;28;20049;-85
2022/08/29 07:20:53;;;;;;;5.40;2.72;;;34.90;68.40;;;;;;5068301;28;20513;-84
2022/08/29 07:23:20;;;;;;;6.10;2.53;;;34.90;67.30;;;;;;5068101;28;20489;-83
2022/08/29 07:25:46;;;;;;;6.05;3.10;;;35.20;66.40;;;;;;5069360;28;20031;-84
2022/08/29 07:28:12;;;;;;;5.60;2.97;;;35.40;64.30;;;;;;5068001;28;20028;-84
2022/08/29 07:30:38;;;;;;;5.80;2.10;;;35.40;64.80;;;;;;5068846;28;20025;-83
2022/08/29 07:33:04;;;;;;;5.38;2.72;;;35.80;63.30;;;;;;5068680;28;20036;-84
2022/08/29 07:35:32;;;;;;;4.88;2.60;;;36.00;62.10;;;;;;5069044;28;20048;-84
2022/08/29 07:38:00;;;;;;;5.32;2.80;;;36.40;61.50;;;;;;5067858;28;20032;-84
2022/08/29 07:40:26;;;;;;;7.50;2.60;;;36.40;60.50;;;;;;5068639;28;20170;-84
2022/08/29 07:42:52;;;;;;;11.05;2.70;;;36.70;60.50;;;;;;5068052;28;20618;-84
2022/08/29 07:45:17;;;;;;;7.82;2.85;;;36.90;58.40;;;;;;5068377;28;20039;-84
2022/08/29 07:47:44;;;;;;;8.27;2.70;;;36.80;58.10;;;;;;5069215;28;20035;-83
2022/08/29 07:50:12;;;;;;;10.43;2.75;;;37.00;58.10;;;;;;5068707;28;20593;-84
2022/08/29 07:52:38;;;;;;;10.77;2.90;;;37.20;57.60;;;;;;5067428;28;20575;-84
2022/08/29 07:55:05;;;;;;;7.53;3.70;;;37.40;56.80;;;;;;5067381;28;20044;-84
2022/08/29 07:57:31;;;;;;;6.75;3.10;;;37.60;55.80;;;;;;5067247;28;20443;-84
2022/08/29 07:59:57;;;;;;;9.18;2.88;;;37.60;55.40;;;;;;5067467;28;20052;-84
2022/08/29 08:02:22;;;;;;;10.07;3.22;;;37.40;56.10;;;;;;5068593;28;20599;-85
2022/08/29 08:04:48;;;;;;;6.13;2.75;;;37.70;55.40;;;;;;5067037;28;20035;-84
2022/08/29 08:07:14;;;;;;;8.85;2.67;;;38.00;54.60;;;;;;5067297;28;20036;-84
2022/08/29 08:09:39;;;;;;;5.82;2.70;;;38.10;53.40;;;;;;5067220;28;20481;-84
2022/08/29 08:12:06;;;;;;;12.05;3.00;;;37.80;53.30;;;;;;5067304;28;20489;-84
2022/08/29 08:14:33;;;;;;;4.70;2.40;;;37.70;53.00;;;;;;5068288;28;20036;-84
2022/08/29 08:16:59;;;;;;;8.27;2.85;;;37.60;53.30;;;;;;5066538;28;20034;-84
2022/08/29 08:19:25;;;;;;;10.55;3.60;;;37.80;52.30;;;;;;5066606;28;20072;-85
2022/08/29 08:21:52;;;;;;;9.32;2.95;;;37.60;51.90;;;;;;5066134;28;20062;-83
2022/08/29 08:24:18;;;;;;;5.28;2.67;;;37.20;52.50;;;;;;5066486;28;20377;-83
2022/08/29 08:26:44;;;;;;;6.90;2.53;;;37.00;53.10;;;;;;5066657;28;20090;-84
2022/08/29 08:29:11;;;;;;;5.70;2.30;;;37.00;54.00;;;;;;5065885;28;20032;-84
2022/08/29 08:31:45;;;;;;;9.88;2.63;;;37.60;53.00;;;;;;5066483;28;20020;-85
2022/08/29 08:34:14;;;;;;;7.07;3.00;;;37.90;52.50;;;;;;5066181;28;20044;-84
2022/08/29 08:36:41;;;;;;;8.82;2.95;;;37.60;51.60;;;;;;5066795;28;20038;-83
2022/08/29 08:39:08;;;;;;;7.68;3.08;;;37.50;51.10;;;;;;5066442;28;20115;-84
2022/08/29 08:41:45;;;;;;;4.32;2.33;;;37.20;51.00;;;;;;5067317;28;20044;-84
2022/08/29 08:44:20;;;;;;;5.25;2.30;;;36.60;52.70;;;;;;5066228;28;20038;-83
2022/08/29 08:46:51;;;;;;;7.35;1.95;;;36.80;52.60;;;;;;5066059;28;20020;-84
2022/08/29 08:49:19;;;;;;;9.73;2.90;;;37.10;53.20;;;;;;5066990;28;20028;-84
2022/08/29 08:51:52;;;;;;;7.65;2.60;;;37.30;52.90;;;;;;5066427;28;20040;-84
2022/08/29 08:54:25;;;;;;;5.15;2.80;;;37.70;52.30;;;;;;5065470;28;20086;-85
2022/08/29 08:56:56;;;;;;;7.28;2.55;;;37.40;51.60;;;;;;5065714;28;20032;-84
2022/08/29 08:59:27;;;;;;;7.90;3.10;;;37.70;51.90;;;;;;5067333;28;20032;-84
2022/08/29 09:02:05;;;;;;;8.45;3.00;;;37.40;51.70;;;;;;5066402;28;20024;-84
2022/08/29 09:05:06;;;;;;;6.03;3.00;;;37.20;51.90;;;;;;5066585;28;20063;-84
2022/08/29 09:07:40;;;;;;;8.32;2.80;;;36.90;51.80;;;;;;5043399;28;20517;-83
2022/08/29 09:10:32;;;;;;;6.05;2.60;;;36.60;52.90;;;;;;5067508;28;20401;-84
2022/08/29 09:13:01;;;;;;;8.10;2.90;;;36.70;52.20;;;;;;5067173;28;20028;-84
2022/08/29 09:15:37;;;;;;;10.48;3.03;;;36.50;52.80;;;;;;5066790;28;20028;-83
2022/08/29 09:18:06;;;;;;;5.63;2.92;;;36.40;53.10;;;;;;5066546;28;20017;-84
2022/08/29 09:20:37;;;;;;;7.93;3.20;;;36.80;52.70;;;;;;5065562;28;20041;-84
2022/08/29 09:23:13;;;;;;;6.05;2.72;;;36.70;52.70;;;;;;5065129;28;20380;-83
2022/08/29 09:25:39;;;;;;;8.98;2.55;;;36.90;53.30;;;;;;5065538;28;20058;-84
2022/08/29 09:28:07;;;;;;;5.28;2.42;;;37.30;52.90;;;;;;5066912;28;20119;-84
2022/08/29 09:30:33;;;;;;;6.85;2.72;;;37.60;52.90;;;;;;5065386;28;20031;-85
2022/08/29 09:33:04;;;;;;;5.63;1.92;;;37.90;51.70;;;;;;5065183;28;20039;-84
2022/08/29 09:35:40;;;;;;;8.65;2.78;;;38.20;51.10;;;;;;5065615;28;20035;-85
2022/08/29 09:38:16;;;;;;;6.53;2.83;;;38.20;50.90;;;;;;5065950;28;20535;-84
2022/08/29 09:40:57;;;;;;;9.80;2.70;;;37.60;49.10;;;;;;5066300;28;20471;-84
2022/08/29 09:43:37;;;;;;;8.18;2.90;;;36.80;50.90;;;;;;5065067;28;20058;-83
2022/08/29 09:46:23;;;;;;;3.92;2.40;;;36.70;52.20;;;;;;5065165;28;20032;-84
2022/08/29 09:49:01;;;;;;;6.50;2.55;;;36.40;53.10;;;;;;5065020;28;20029;-83
2022/08/29 09:51:38;;;;;;;6.65;3.00;;;36.30;52.00;;;;;;5065254;28;20025;-84
2022/08/29 09:54:13;;;;;;;11.32;2.90;;;36.00;52.60;;;;;;5064979;28;20039;-85
2022/08/29 09:56:53;;;;;;;6.15;2.78;;;36.00;53.10;;;;;;5066691;28;20039;-83
2022/08/29 09:59:32;;;;;;;6.30;2.72;;;35.70;52.80;;;;;;5062998;28;20607;-84
2022/08/29 10:02:18;;;;;;;5.00;2.40;;;35.60;52.90;;;;;;5065507;28;20029;-83
2022/08/29 10:04:47;;;;;;;9.20;2.25;;;35.40;55.10;;;;;;5067363;28;20037;-83
2022/08/29 10:07:33;;;;;;;4.03;2.25;;;35.80;54.00;;;;;;5069850;28;20363;-85
2022/08/29 10:10:14;;;;;;;4.32;2.30;;;36.20;53.60;;;;;;5070196;28;20032;-84
2022/08/29 10:12:52;;;;;;;5.72;2.67;;;36.40;52.90;;;;;;5071545;28;20032;-84
2022/08/29 10:15:25;;;;;;;11.13;2.20;;;36.70;52.60;;;;;;5071529;28;20063;-84
2022/08/29 10:18:19;;;;;;;2.85;1.83;;;36.80;51.50;;;;;;5069093;28;20029;-83
2022/08/29 10:21:05;;;;;;;5.20;1.70;;;36.70;50.40;;;;;;5068629;28;20132;-83
2022/08/29 10:23:59;;;;;;;3.47;1.67;;;36.20;51.00;;;;;;5069065;28;20024;-83
2022/08/29 10:26:43;;;;;;;4.03;2.30;;;35.60;51.90;;;;;;5069136;28;20036;-83
2022/08/29 10:29:11;;;;;;;7.70;2.15;;;35.10;53.40;;;;;;5068843;28;20064;-83
2022/08/29 10:31:46;;;;;;;8.90;2.10;;;34.90;53.60;;;;;;5070928;28;20108;-83
2022/08/29 10:34:42;;;;;;;4.30;2.05;;;34.50;54.00;;;;;;5070221;28;20048;-82
2022/08/29 10:37:27;;;;;;;6.63;3.35;;;34.00;56.10;;;;;;5070260;28;20050;-84
2022/08/29 10:40:05;;;;;;;4.93;2.65;;;33.70;57.10;;;;;;5069090;28;20040;-83
2022/08/29 10:42:35;;;;;;;6.78;2.47;;;33.40;57.60;;;;;;5068903;28;20082;-82
2022/08/29 10:45:34;;;;;;;4.80;2.47;;;33.00;58.10;;;;;;5069117;28;20029;-82
2022/08/29 10:48:10;;;;;;;4.70;2.42;;;33.00;58.70;;;;;;5068896;28;20028;-84
2022/08/29 10:51:16;;;;;;;8.65;2.20;;;32.80;57.90;;;;;;5069338;28;20047;-83
2022/08/29 10:53:51;;;;;;;5.72;2.38;;;32.80;58.60;;;;;;5068649;28;20223;-80
2022/08/29 10:56:26;;;;;;;5.22;2.28;;;32.70;58.70;;;;;;5070269;28;20035;-82
2022/08/29 10:59:30;;;;;;;3.63;2.10;;;32.70;59.00;;;;;;5068266;28;20126;-83
2022/08/29 11:02:18;;;;;;;9.60;2.70;;;32.80;59.00;;;;;;5061526;28;20041;-84
2022/08/29 11:04:52;;;;;;;5.43;2.40;;;32.50;60.20;;;;;;5070325;28;20032;-84
2022/08/29 11:07:39;;;;;;;5.43;2.38;;;32.30;60.10;;;;;;5090552;28;20027;-83
2022/08/29 11:10:31;;;;;;;7.28;3.38;;;32.00;61.20;;;;;;5082979;28;20412;-83
2022/08/29 11:13:37;;;;;;;5.53;2.20;;;32.00;61.30;;;;;;5083264;28;20109;-83
2022/08/29 11:16:17;;;;;;;2.70;1.80;;;31.80;62.70;;;;;;5085185;28;20038;-83
2022/08/29 11:19:06;;;;;;;4.85;1.75;;;31.90;61.80;;;;;;5090328;28;20032;-82
2022/08/29 11:21:36;;;;;;;3.80;1.83;;;32.10;61.20;;;;;;5089735;28;20520;-84
2022/08/29 11:24:02;;;;;;;2.83;1.55;;;32.10;60.90;;;;;;5090273;28;20189;-83
2022/08/29 11:26:43;;;;;;;4.18;1.70;;;32.10;61.40;;;;;;5090057;28;20028;-83
2022/08/29 11:29:53;;;;;;;5.38;1.83;;;32.20;60.90;;;;;;5082925;28;20724;-84
2022/08/29 11:32:42;;;;;;;4.00;2.25;;;32.00;61.20;;;;;;5069764;28;20096;-82
2022/08/29 11:35:17;;;;;;;4.10;1.73;;;31.90;62.00;;;;;;5068104;28;20060;-83
2022/08/29 11:37:45;;;;;;;8.63;1.85;;;31.90;62.50;;;;;;5079068;28;20504;-83
2022/08/29 11:40:36;;;;;;;6.22;2.08;;;31.80;62.00;;;;;;5087428;28;20036;-83
2022/08/29 11:43:04;;;;;;;3.65;1.67;;;31.90;62.40;;;;;;5067708;28;20035;-82
2022/08/29 11:45:36;;;;;;;4.68;1.75;;;31.90;62.60;;;;;;5085259;28;20448;-83
2022/08/29 11:48:34;;;;;;;6.68;1.48;;;32.10;61.70;;;;;;5085024;28;20024;-83
2022/08/29 11:51:36;;;;;;;3.70;2.17;;;32.20;61.40;;;;;;5056674;28;20061;-83
2022/08/29 11:54:24;;;;;;;3.58;2.35;;;32.20;61.00;;;;;;5058405;28;20029;-82
2022/08/29 11:57:10;;;;;;;3.58;2.10;;;32.50;60.00;;;;;;5067901;28;20739;-83
2022/08/29 11:59:48;;;;;;;2.05;1.70;;;32.70;59.80;;;;;;5068754;28;20039;-83
2022/08/29 12:02:32;;;;;;;4.65;2.42;;;32.70;59.30;;;;;;5067167;28;20086;-83
2022/08/29 12:05:03;;;;;;;3.25;1.80;;;32.70;60.00;;;;;;5068042;28;20028;-83
2022/08/29 12:07:47;;;;;;;6.07;2.25;;;32.70;60.10;;;;;;5069309;28;20512;-82
2022/08/29 12:10:19;;;;;;;2.60;1.52;;;32.80;59.00;;;;;;5068895;28;20066;-85
2022/08/29 12:12:50;;;;;;;3.80;1.83;;;32.80;59.90;;;;;;5068737;28;20029;-84
2022/08/29 12:15:39;;;;;;;6.80;2.45;;;32.90;59.70;;;;;;5069010;28;20023;-83
2022/08/29 12:18:15;;;;;;;6.25;2.42;;;33.00;57.60;;;;;;5068120;28;20119;-84
2022/08/29 12:20:44;;;;;;;4.43;2.03;;;32.60;58.80;;;;;;5069153;28;20032;-83
2022/08/29 12:23:09;;;;;;;28.25;4.38;;;32.40;58.90;;;;;;5069055;28;20397;-84
2022/08/29 12:25:50;;;;;;;10.20;2.53;;;32.10;58.90;;;;;;5068437;28;20493;-83
2022/08/29 12:28:26;;;;;;;3.42;1.40;;;32.00;60.00;;;;;;5069039;28;20038;-83
2022/08/29 12:30:58;;;;;;;2.60;1.25;;;31.90;59.90;;;;;;5068687;28;20016;-84
2022/08/29 12:33:35;;;;;;;2.35;1.52;;;32.20;60.40;;;;;;5066824;28;20048;-82
2022/08/29 12:36:06;;;;;;;3.35;1.50;;;32.30;59.10;;;;;;5066771;28;20081;-83
2022/08/29 12:38:52;;;;;;;2.13;1.50;;;32.40;59.10;;;;;;5066793;28;20111;-84
2022/08/29 12:41:36;;;;;;;4.93;1.63;;;32.70;58.80;;;;;;5066432;28;20089;-84
2022/08/29 12:44:09;;;;;;;3.25;1.50;;;32.60;57.40;;;;;;5067435;28;20119;-82
2022/08/29 12:46:39;;;;;;;2.42;1.50;;;32.70;58.30;;;;;;5067356;28;20085;-84
2022/08/29 12:49:14;;;;;;;2.90;1.40;;;32.70;58.10;;;;;;5067417;28;20024;-83
2022/08/29 12:51:41;;;;;;;2.83;1.40;;;32.90;57.80;;;;;;5067248;28;20024;-83
2022/08/29 12:54:11;;;;;;;2.15;1.13;;;32.90;57.30;;;;;;5068455;28;20481;-83
2022/08/29 12:56:48;;;;;;;5.55;2.10;;;33.00;57.60;;;;;;5066313;28;20021;-84
2022/08/29 12:59:19;;;;;;;3.58;1.42;;;33.00;57.60;;;;;;5066866;28;20067;-82
2022/08/29 13:01:53;;;;;;;5.85;1.70;;;32.90;57.40;;;;;;5066814;28;20512;-83
2022/08/29 13:04:22;;;;;;;5.00;1.70;;;32.90;56.50;;;;;;5067033;28;20029;-82